Time;durP1;ratioP1;P1;durP2;ratioP2;P2;SDS_P1;SDS_P2;PMS_P1;PMS_P2;Temp;Humidity;BMP_temperature;BMP_pressure;BME280_temperature;BME280_humidity;BME280_pressure;Samples;Min_cycle;Max_cycle;Signal;HPM_P1;HPM_P2
2023/12/30 00:01:45;;;;;;;8.75;2.30;;;;;;;20.93;37.86;98928.81;7400036;19;20025;-53
2023/12/30 00:04:12;;;;;;;0.77;0.60;;;;;;;21.05;37.83;98935.59;7399341;19;20015;-53
2023/12/30 00:06:38;;;;;;;23.48;3.33;;;;;;;21.05;37.21;98941.25;7399001;19;20021;-53
2023/12/30 00:09:04;;;;;;;0.85;0.50;;;;;;;21.43;36.87;98946.81;7398757;19;20018;-53
2023/12/30 00:11:31;;;;;;;0.40;0.15;;;;;;;21.19;37.32;98938.94;7398389;19;20334;-53
2023/12/30 00:13:57;;;;;;;4.20;1.05;;;;;;;20.97;37.39;98946.16;7398061;19;20019;-53
2023/12/30 00:16:23;;;;;;;3.08;0.88;;;;;;;23.17;35.38;98937.03;7395770;19;20037;-53
2023/12/30 00:18:49;;;;;;;0.10;0.10;;;;;;;23.08;34.92;98937.69;7396009;19;20014;-53
2023/12/30 00:21:20;;;;;;;0.63;0.63;;;;;;;22.06;35.35;98927.59;7396829;19;20022;-53
2023/12/30 00:23:47;;;;;;;7.50;1.50;;;;;;;21.88;35.73;98928.84;7397360;19;20462;-53
2023/12/30 00:26:20;;;;;;;2.63;1.15;;;;;;;21.13;36.51;98930.69;7401310;19;20014;-53
2023/12/30 00:28:53;;;;;;;3.20;1.00;;;;;;;21.86;36.12;98934.34;7395972;19;20062;-53
2023/12/30 00:31:29;;;;;;;0.30;0.30;;;;;;;25.62;32.48;98934.88;7396843;19;20027;-52
2023/12/30 00:34:00;;;;;;;0.40;0.30;;;;;;;27.54;30.09;98929.72;7397815;19;20019;-53
2023/12/30 00:36:28;;;;;;;8.27;0.85;;;;;;;27.93;29.59;98930.84;7396779;19;20082;-53
2023/12/30 00:38:55;;;;;;;0.30;0.30;;;;;;;28.29;29.08;98930.28;7402062;19;20015;-53
2023/12/30 00:41:26;;;;;;;0.30;0.30;;;;;;;28.27;29.07;98935.88;7397488;19;20020;-53
2023/12/30 00:43:52;;;;;;;;;;;;;;;30.46;27.91;98930.06;7397714;19;20014;-53
2023/12/30 00:46:19;;;;;;;1.65;0.75;;;;;;;30.97;26.81;98927.75;7394133;19;19922;-52
2023/12/30 00:48:46;;;;;;;0.10;0.10;;;;;;;29.23;27.29;98934.59;7396455;19;20014;-53
2023/12/30 00:51:12;;;;;;;0.13;0.13;;;;;;;29.31;27.42;98929.31;7395593;19;20021;-53
2023/12/30 00:53:40;;;;;;;0.10;0.10;;;;;;;28.47;27.51;98925.69;7396783;19;20030;-52
2023/12/30 00:56:07;;;;;;;0.50;0.50;;;;;;;28.57;27.78;98925.56;7396689;19;20007;-53
2023/12/30 00:58:33;;;;;;;0.32;0.32;;;;;;;29.16;27.57;98924.88;7394071;19;20477;-54
2023/12/30 01:00:59;;;;;;;0.10;0.10;;;;;;;29.00;27.36;98926.03;7394947;19;20011;-53
2023/12/30 01:03:25;;;;;;;0.32;0.32;;;;;;;28.61;27.53;98940.16;7394797;19;20018;-52
2023/12/30 01:05:54;;;;;;;0.40;0.40;;;;;;;28.62;27.09;98940.91;7396855;19;20043;-53
2023/12/30 01:08:20;;;;;;;0.57;0.57;;;;;;;28.54;27.36;98941.88;7396211;19;20482;-53
2023/12/30 01:10:47;;;;;;;0.32;0.32;;;;;;;28.91;26.67;98932.66;7394980;19;20486;-53
2023/12/30 01:13:13;;;;;;;0.15;0.15;;;;;;;28.97;26.53;98935.88;7396929;19;20034;-52
2023/12/30 01:15:39;;;;;;;0.35;0.35;;;;;;;28.74;26.92;98936.66;7394038;19;20346;-52
2023/12/30 01:18:05;;;;;;;0.20;0.20;;;;;;;28.78;26.81;98933.28;7395337;19;20035;-53
2023/12/30 01:20:32;;;;;;;1.52;0.50;;;;;;;28.56;26.80;98926.94;7394270;19;20023;-62
2023/12/30 01:22:58;;;;;;;0.20;0.20;;;;;;;28.18;27.34;98928.16;7393290;19;20040;-53
2023/12/30 01:25:24;;;;;;;0.40;0.40;;;;;;;21.88;32.76;98931.66;7396212;19;20010;-53
2023/12/30 01:27:51;;;;;;;0.40;0.40;;;;;;;20.59;34.19;98939.81;7394554;19;20463;-53
2023/12/30 01:30:17;;;;;;;0.10;0.10;;;;;;;17.84;37.27;98952.84;7396370;19;20047;-54
2023/12/30 01:32:45;;;;;;;0.10;0.10;;;;;;;15.49;42.07;98956.09;7396392;19;20027;-53
2023/12/30 01:35:11;;;;;;;1.63;1.02;;;;;;;15.39;43.93;98961.31;7395610;19;20047;-52
2023/12/30 01:37:39;;;;;;;0.22;0.22;;;;;;;15.42;44.13;98957.41;7395414;19;20455;-52
2023/12/30 01:40:05;;;;;;;0.30;0.30;;;;;;;15.21;45.43;98959.22;7394352;19;20033;-52
2023/12/30 01:42:31;;;;;;;0.20;0.20;;;;;;;15.93;44.85;98966.69;7395900;19;20554;-53
2023/12/30 01:44:58;;;;;;;0.30;0.30;;;;;;;16.21;44.02;98964.19;7395095;19;20029;-52
2023/12/30 01:47:24;;;;;;;0.32;0.20;;;;;;;16.23;44.57;98958.78;7393377;19;20070;-54
2023/12/30 01:49:51;;;;;;;0.30;0.30;;;;;;;15.75;45.43;98961.84;7395140;19;20017;-53
2023/12/30 01:52:17;;;;;;;0.30;0.30;;;;;;;16.08;45.30;98966.19;7395298;19;20025;-53
2023/12/30 01:54:44;;;;;;;0.13;0.10;;;;;;;16.09;45.51;98953.69;7395699;19;20015;-54
2023/12/30 01:57:11;;;;;;;0.30;0.30;;;;;;;16.14;45.77;98961.25;7395978;19;20022;-53
2023/12/30 01:59:38;;;;;;;0.20;0.20;;;;;;;16.68;44.83;98956.75;7392357;19;20014;-53
2023/12/30 02:02:04;;;;;;;0.20;0.20;;;;;;;16.77;44.44;98954.78;7392879;19;20465;-53
2023/12/30 02:04:30;;;;;;;0.63;0.63;;;;;;;16.79;44.91;98955.00;7393052;19;20493;-53
2023/12/30 02:06:57;;;;;;;0.20;0.20;;;;;;;16.65;44.64;98963.44;7394892;19;20041;-53
2023/12/30 02:09:23;;;;;;;0.10;0.10;;;;;;;16.63;44.68;98959.66;7399070;19;20014;-52
2023/12/30 02:11:49;;;;;;;0.10;0.10;;;;;;;16.40;45.50;98967.69;7394416;19;20010;-53
2023/12/30 02:14:41;;;;;;;0.25;0.25;;;;;;;17.04;44.27;98954.28;7394290;19;20010;-53
2023/12/30 02:17:07;;;;;;;1.65;1.17;;;;;;;16.71;44.99;98954.16;7391878;19;20022;-53
2023/12/30 02:19:34;;;;;;;1.02;0.52;;;;;;;16.58;45.54;98955.66;7394072;19;20014;-53
2023/12/30 02:22:00;;;;;;;0.20;0.20;;;;;;;16.49;45.71;98956.03;7392931;19;20015;-60
2023/12/30 02:24:26;;;;;;;0.57;0.57;;;;;;;16.33;46.54;98954.28;7394563;19;20010;-60
2023/12/30 02:26:54;;;;;;;0.20;0.20;;;;;;;17.29;46.49;98960.41;7396700;19;20007;-61
2023/12/30 02:29:23;;;;;;;1.42;0.32;;;;;;;17.57;46.31;98959.84;7396375;19;20112;-61
2023/12/30 02:31:49;;;;;;;0.25;0.25;;;;;;;17.28;46.35;98968.09;7392687;19;20478;-60
2023/12/30 02:34:17;;;;;;;0.10;0.10;;;;;;;17.59;45.92;98969.25;7392641;19;20014;-61
2023/12/30 02:36:44;;;;;;;0.10;0.10;;;;;;;18.43;44.40;98970.88;7392559;19;20015;-60
2023/12/30 02:39:11;;;;;;;0.20;0.20;;;;;;;19.04;43.27;98970.03;7397179;19;20006;-61
2023/12/30 02:41:37;;;;;;;0.10;0.10;;;;;;;18.57;44.77;98963.88;7392892;19;20358;-63
2023/12/30 02:44:04;;;;;;;0.73;0.73;;;;;;;17.95;45.75;98953.31;7393042;19;20010;-60
2023/12/30 02:46:31;;;;;;;0.63;0.63;;;;;;;17.79;45.84;98954.47;7391129;19;20037;-60
2023/12/30 02:49:02;;;;;;;0.10;0.10;;;;;;;19.52;43.55;98951.47;7395061;19;20035;-61
2023/12/30 02:51:29;;;;;;;0.20;0.20;;;;;;;19.84;43.04;98956.66;7392214;19;20021;-61
2023/12/30 02:53:55;;;;;;;0.20;0.20;;;;;;;18.41;44.62;98962.22;7391556;19;20011;-61
2023/12/30 02:56:23;;;;;;;0.28;0.28;;;;;;;18.84;44.43;98965.19;7393709;19;20010;-60
2023/12/30 02:58:56;;;;;;;0.30;0.30;;;;;;;18.68;44.77;98960.75;7396206;19;20010;-60
2023/12/30 03:01:27;;;;;;;0.10;0.10;;;;;;;18.54;44.89;98959.31;7393221;19;20025;-61
2023/12/30 03:03:54;;;;;;;;;;;;;;;18.36;45.60;98960.28;7393593;19;20354;-61
2023/12/30 03:06:21;;;;;;;0.60;0.55;;;;;;;18.40;45.59;98966.31;7389848;19;19989;-61
2023/12/30 03:08:48;;;;;;;1.45;1.33;;;;;;;18.99;45.31;98962.47;7396438;19;20013;-60
2023/12/30 03:11:15;;;;;;;0.20;0.20;;;;;;;18.83;44.78;98955.22;7400943;19;20015;-61
2023/12/30 03:13:41;;;;;;;1.65;0.52;;;;;;;18.70;45.24;98955.31;7399188;19;20038;-61
2023/12/30 03:16:07;;;;;;;0.20;0.20;;;;;;;19.58;44.37;98963.34;7398893;19;20015;-61
2023/12/30 03:18:34;;;;;;;0.20;0.20;;;;;;;22.03;39.37;98951.44;7402210;19;20027;-61
2023/12/30 03:21:00;;;;;;;0.10;0.10;;;;;;;20.59;42.30;98965.25;7399457;19;20011;-61
2023/12/30 03:23:26;;;;;;;0.20;0.20;;;;;;;20.53;42.53;98944.88;7397863;19;20014;-61
2023/12/30 03:25:53;;;;;;;0.20;0.20;;;;;;;19.98;42.83;98938.22;7401159;19;20015;-60
2023/12/30 03:28:20;;;;;;;0.90;0.28;;;;;;;18.87;44.87;98941.50;7402403;19;20378;-61
2023/12/30 03:30:46;;;;;;;0.10;0.10;;;;;;;18.60;45.49;98940.22;7398713;19;20010;-61
2023/12/30 03:33:12;;;;;;;0.10;0.10;;;;;;;18.50;45.74;98942.75;7398614;19;20066;-61
2023/12/30 03:35:38;;;;;;;0.20;0.20;;;;;;;18.10;46.31;98947.09;7399291;19;20010;-61
2023/12/30 03:38:04;;;;;;;0.10;0.10;;;;;;;17.30;47.74;98947.88;7397871;19;20480;-61
2023/12/30 03:40:30;;;;;;;0.13;0.13;;;;;;;21.46;43.82;98934.31;7399587;19;20031;-61
2023/12/30 03:42:57;;;;;;;0.10;0.10;;;;;;;26.05;35.46;98925.91;7400215;19;20011;-61
2023/12/30 03:45:23;;;;;;;0.10;0.10;;;;;;;27.06;33.80;98921.53;7398046;19;20021;-61
2023/12/30 03:47:49;;;;;;;2.20;0.75;;;;;;;27.87;32.16;98921.13;7399897;19;20086;-61
2023/12/30 03:50:15;;;;;;;0.10;0.10;;;;;;;27.60;31.84;98933.72;7399071;19;20058;-61
2023/12/30 03:52:41;;;;;;;0.85;0.55;;;;;;;28.26;31.30;98927.94;7397481;19;20074;-61
2023/12/30 03:55:07;;;;;;;0.10;0.10;;;;;;;28.59;30.35;98924.97;7398855;19;20041;-61
2023/12/30 03:57:33;;;;;;;0.65;0.65;;;;;;;29.05;30.12;98916.28;7401340;19;20014;-61
2023/12/30 04:00:00;;;;;;;0.10;0.10;;;;;;;29.67;28.83;98922.78;7399164;19;20026;-61
2023/12/30 04:02:26;;;;;;;0.20;0.20;;;;;;;30.37;28.12;98919.50;7398149;19;20031;-61
2023/12/30 04:04:53;;;;;;;0.17;0.17;;;;;;;29.66;28.89;98921.31;7397890;19;20078;-61
2023/12/30 04:07:19;;;;;;;0.20;0.20;;;;;;;29.72;28.29;98930.25;7397340;19;20049;-61
2023/12/30 04:09:45;;;;;;;0.10;0.10;;;;;;;29.53;28.22;98933.47;7399427;19;20015;-61
2023/12/30 04:12:11;;;;;;;0.10;0.10;;;;;;;29.42;28.25;98919.91;7397089;19;20011;-61
2023/12/30 04:14:38;;;;;;;0.15;0.15;;;;;;;28.97;28.51;98921.53;7397122;19;20015;-61
2023/12/30 04:17:04;;;;;;;0.20;0.20;;;;;;;28.65;28.86;98928.94;7395720;19;20014;-61
2023/12/30 04:19:30;;;;;;;0.10;0.10;;;;;;;28.62;28.68;98917.97;7401750;19;20011;-61
2023/12/30 04:21:56;;;;;;;0.57;0.52;;;;;;;24.30;31.75;98921.31;7397434;19;20470;-61
2023/12/30 04:24:22;;;;;;;0.20;0.20;;;;;;;20.40;37.11;98925.25;7396725;19;20022;-61
2023/12/30 04:26:50;;;;;;;0.20;0.20;;;;;;;20.07;38.11;98934.84;7401832;19;20024;-61
2023/12/30 04:29:16;;;;;;;0.10;0.10;;;;;;;18.96;39.49;98938.19;7400894;19;20027;-61
2023/12/30 04:31:42;;;;;;;0.10;0.10;;;;;;;18.45;40.49;98934.47;7398447;19;20009;-60
2023/12/30 04:34:09;;;;;;;0.17;0.17;;;;;;;17.24;43.03;98927.50;7397553;19;20022;-61
2023/12/30 04:36:35;;;;;;;0.17;0.17;;;;;;;17.39;43.24;98922.81;7394579;19;20015;-61
2023/12/30 04:39:01;;;;;;;0.28;0.28;;;;;;;17.81;43.32;98918.06;7399293;19;20022;-61
2023/12/30 04:41:27;;;;;;;0.10;0.10;;;;;;;17.70;43.51;98921.13;7395013;19;20014;-60
2023/12/30 04:43:54;;;;;;;0.10;0.10;;;;;;;17.71;43.53;98919.09;7395855;19;20015;-61
2023/12/30 04:46:20;;;;;;;0.17;0.17;;;;;;;18.65;43.12;98916.72;7396376;19;20751;-60
2023/12/30 04:48:48;;;;;;;0.10;0.10;;;;;;;16.65;46.59;98918.44;7398136;19;20022;-61
2023/12/30 04:51:15;;;;;;;15.05;0.77;;;;;;;17.33;47.08;98913.75;7395328;19;20014;-61
2023/12/30 04:53:41;;;;;;;0.32;0.32;;;;;;;17.50;46.61;98907.00;7396907;19;20014;-61
2023/12/30 04:56:14;;;;;;;1.13;0.45;;;;;;;16.86;48.33;98904.50;7398408;19;20006;-61
2023/12/30 04:58:40;;;;;;;0.45;0.32;;;;;;;17.74;47.52;98901.06;7398289;19;20018;-61
2023/12/30 05:01:08;;;;;;;0.15;0.15;;;;;;;16.73;49.65;98898.91;7395298;19;20011;-61
2023/12/30 05:03:35;;;;;;;0.20;0.20;;;;;;;16.36;50.82;98913.09;7396484;19;20014;-61
2023/12/30 05:06:02;;;;;;;0.20;0.20;;;;;;;21.06;41.99;98885.38;7396605;19;20031;-61
2023/12/30 05:08:29;;;;;;;0.32;0.30;;;;;;;16.92;50.39;98895.94;7399185;19;20007;-61
2023/12/30 05:10:55;;;;;;;0.10;0.10;;;;;;;17.48;49.28;98890.63;7396727;19;20010;-61
2023/12/30 05:13:21;;;;;;;0.63;0.10;;;;;;;17.31;49.33;98890.25;7397003;19;20024;-61
2023/12/30 05:15:49;;;;;;;0.20;0.20;;;;;;;23.82;39.19;98875.56;7396063;19;20021;-61
2023/12/30 05:18:16;;;;;;;0.10;0.10;;;;;;;25.02;36.60;98880.56;7396525;19;20015;-61
2023/12/30 05:20:42;;;;;;;0.13;0.13;;;;;;;25.68;35.23;98883.97;7395913;19;20018;-61
2023/12/30 05:23:08;;;;;;;0.90;0.85;;;;;;;21.00;39.53;98891.25;7396485;19;20018;-62
2023/12/30 05:25:34;;;;;;;0.10;0.10;;;;;;;18.06;45.98;98896.69;7396179;19;20344;-62
2023/12/30 05:28:00;;;;;;;0.20;0.20;;;;;;;18.58;46.41;98892.06;7396540;19;20362;-61
2023/12/30 05:30:28;;;;;;;0.10;0.10;;;;;;;22.31;40.54;98868.78;7395146;19;20066;-61
2023/12/30 05:32:54;;;;;;;0.10;0.10;;;;;;;24.38;37.62;98865.03;7393656;19;20015;-61
2023/12/30 05:35:21;;;;;;;0.63;0.47;;;;;;;24.54;36.33;98859.81;7396160;19;20025;-61
2023/12/30 05:37:47;;;;;;;0.10;0.10;;;;;;;21.11;40.12;98873.84;7396218;19;20013;-61
2023/12/30 05:40:13;;;;;;;0.10;0.10;;;;;;;20.48;41.17;98875.13;7395166;19;20011;-62
2023/12/30 05:42:40;;;;;;;0.10;0.10;;;;;;;20.60;40.94;98879.06;7395700;19;20474;-61
2023/12/30 05:45:06;;;;;;;0.10;0.10;;;;;;;19.61;42.39;98877.50;7395880;19;20017;-62
2023/12/30 05:47:33;;;;;;;0.73;0.73;;;;;;;24.40;36.80;98872.97;7395885;19;20503;-63
2023/12/30 05:49:59;;;;;;;0.10;0.10;;;;;;;21.06;40.21;98880.47;7393887;19;20003;-62
2023/12/30 05:52:25;;;;;;;0.30;0.30;;;;;;;18.36;44.34;98882.09;7396913;19;20070;-61
2023/12/30 05:54:51;;;;;;;0.20;0.20;;;;;;;18.53;44.76;98873.97;7394524;19;20462;-62
2023/12/30 05:57:17;;;;;;;0.10;0.10;;;;;;;20.52;43.58;98877.56;7397229;19;20011;-61
2023/12/30 05:59:43;;;;;;;0.43;0.32;;;;;;;18.42;45.77;98881.94;7394530;19;20328;-61
2023/12/30 06:02:10;;;;;;;0.10;0.10;;;;;;;20.52;42.38;98883.97;7394075;19;20414;-62
2023/12/30 06:04:40;;;;;;;0.10;0.10;;;;;;;20.06;42.79;98885.28;7394892;19;20021;-61
2023/12/30 06:07:07;;;;;;;0.27;0.20;;;;;;;23.08;40.22;98866.69;7395112;19;20365;-61
2023/12/30 06:09:33;;;;;;;7.25;0.75;;;;;;;23.86;39.05;98873.06;7393185;19;20381;-61
2023/12/30 06:11:59;;;;;;;3.80;0.75;;;;;;;26.23;35.83;98864.44;7394004;19;20396;-61
2023/12/30 06:14:26;;;;;;;0.10;0.10;;;;;;;23.06;37.69;98869.38;7394426;19;20041;-61
2023/12/30 06:16:52;;;;;;;0.10;0.10;;;;;;;20.76;40.88;98869.22;7394635;19;20029;-61
2023/12/30 06:19:18;;;;;;;0.20;0.20;;;;;;;21.56;41.29;98860.78;7398635;19;20070;-61
2023/12/30 06:21:44;;;;;;;0.45;0.30;;;;;;;21.25;41.32;98862.25;7396966;19;20010;-61
2023/12/30 06:24:10;;;;;;;0.10;0.10;;;;;;;19.65;42.90;98861.69;7394255;19;20017;-61
2023/12/30 06:26:38;;;;;;;0.10;0.10;;;;;;;18.69;45.02;98869.19;7396546;19;20498;-61
2023/12/30 06:29:08;;;;;;;0.40;0.40;;;;;;;19.31;44.37;98866.09;7397353;19;20013;-61
2023/12/30 06:31:39;;;;;;;0.10;0.10;;;;;;;26.11;37.21;98834.28;7393812;19;20375;-61
2023/12/30 06:34:05;;;;;;;0.20;0.20;;;;;;;20.18;41.95;98850.41;7393392;19;20014;-61
2023/12/30 06:36:31;;;;;;;0.15;0.15;;;;;;;19.15;45.42;98853.97;7393406;19;20447;-61
2023/12/30 06:38:58;;;;;;;0.20;0.20;;;;;;;18.84;45.55;98852.34;7397090;19;20562;-61
2023/12/30 06:41:24;;;;;;;0.10;0.10;;;;;;;17.45;49.11;98853.06;7396561;19;20019;-61
2023/12/30 06:43:51;;;;;;;0.10;0.10;;;;;;;21.89;41.77;98833.97;7392667;19;20046;-61
2023/12/30 06:46:19;;;;;;;0.10;0.10;;;;;;;20.57;43.62;98829.28;7401952;19;20014;-61
2023/12/30 06:48:47;;;;;;;1.65;0.38;;;;;;;20.53;44.45;98823.22;7404162;19;20002;-65
2023/12/30 06:51:13;;;;;;;0.10;0.10;;;;;;;22.13;39.92;98813.34;7401388;19;20010;-61
2023/12/30 06:53:39;;;;;;;0.10;0.10;;;;;;;26.23;37.09;98812.28;7401818;19;20011;-61
2023/12/30 06:56:09;;;;;;;0.25;0.25;;;;;;;20.70;41.30;98800.78;7402468;19;20103;-62
2023/12/30 06:58:36;;;;;;;1.30;0.50;;;;;;;18.19;45.64;98817.72;7403398;19;20010;-61
2023/12/30 07:01:02;;;;;;;0.10;0.10;;;;;;;17.97;48.79;98804.22;7401893;19;20011;-61
2023/12/30 07:03:28;;;;;;;0.10;0.10;;;;;;;16.89;53.01;98793.72;7401212;19;20037;-61
2023/12/30 07:05:54;;;;;;;0.15;0.15;;;;;;;16.14;57.16;98803.94;7400640;19;20339;-61
2023/12/30 07:08:20;;;;;;;0.10;0.10;;;;;;;16.79;55.39;98795.50;7402419;19;20429;-61
2023/12/30 07:10:46;;;;;;;0.10;0.10;;;;;;;17.38;54.49;98786.22;7400793;19;20025;-61
2023/12/30 07:13:12;;;;;;;0.10;0.10;;;;;;;16.68;56.32;98788.06;7400799;19;20040;-62
2023/12/30 07:15:39;;;;;;;0.20;0.20;;;;;;;16.64;55.76;98793.25;7400430;19;20045;-61
2023/12/30 07:18:05;;;;;;;2.05;0.50;;;;;;;16.59;60.21;98785.69;7399888;19;20014;-61
2023/12/30 07:20:31;;;;;;;0.13;0.13;;;;;;;15.74;61.31;98775.06;7400428;19;20418;-61
2023/12/30 07:22:57;;;;;;;0.10;0.10;;;;;;;17.05;58.79;98763.72;7399834;19;20007;-61
2023/12/30 07:25:23;;;;;;;0.28;0.28;;;;;;;16.71;58.59;98757.34;7399300;19;20034;-61
2023/12/30 07:27:51;;;;;;;0.55;0.28;;;;;;;17.56;56.44;98755.63;7400567;19;20336;-61
2023/12/30 07:30:17;;;;;;;0.10;0.10;;;;;;;15.03;68.29;98763.66;7398028;19;20015;-61
2023/12/30 07:32:43;;;;;;;0.10;0.10;;;;;;;15.09;71.96;98745.47;7398150;19;20497;-62
2023/12/30 07:35:09;;;;;;;0.10;0.00;;;;;;;15.66;71.01;98746.09;7400257;19;20018;-62
2023/12/30 07:37:35;;;;;;;0.13;0.10;;;;;;;15.57;70.33;98735.31;7398992;19;20011;-61
2023/12/30 07:40:02;;;;;;;1.10;0.32;;;;;;;17.79;60.12;98728.41;7399677;19;20046;-61
2023/12/30 07:42:28;;;;;;;0.10;0.10;;;;;;;16.59;65.16;98723.84;7399689;19;20026;-61
2023/12/30 07:44:54;;;;;;;1.00;0.43;;;;;;;16.82;64.96;98717.72;7399395;19;20018;-61
2023/12/30 07:47:21;;;;;;;0.30;0.30;;;;;;;18.52;59.69;98719.44;7398210;19;20107;-61
2023/12/30 07:49:47;;;;;;;0.10;0.10;;;;;;;18.37;58.56;98716.53;7398440;19;20010;-61
2023/12/30 07:52:13;;;;;;;0.10;0.10;;;;;;;18.47;58.12;98711.91;7399561;19;20015;-61
2023/12/30 07:54:39;;;;;;;1.45;0.43;;;;;;;19.47;54.31;98701.03;7398224;19;20011;-61
2023/12/30 07:57:05;;;;;;;0.25;0.25;;;;;;;21.48;49.70;98690.09;7397753;19;20025;-62
2023/12/30 07:59:31;;;;;;;0.10;0.10;;;;;;;23.13;47.59;98683.91;7402776;19;20011;-61
2023/12/30 08:01:58;;;;;;;0.10;0.10;;;;;;;21.70;47.16;98687.06;7399398;19;20018;-61
2023/12/30 08:04:24;;;;;;;0.10;0.10;;;;;;;21.65;46.91;98692.97;7398360;19;20029;-61
2023/12/30 08:06:51;;;;;;;0.10;0.10;;;;;;;20.50;48.90;98679.38;7396247;19;20021;-60
2023/12/30 08:09:17;;;;;;;0.57;0.57;;;;;;;20.89;49.79;98681.44;7402119;19;20085;-61
2023/12/30 08:11:43;;;;;;;0.40;0.40;;;;;;;27.62;38.27;98672.78;7399752;19;20011;-61
2023/12/30 08:14:09;;;;;;;0.10;0.10;;;;;;;28.21;36.26;98663.47;7398980;19;20029;-61
2023/12/30 08:16:36;;;;;;;0.82;0.40;;;;;;;21.34;44.15;98672.66;7397833;19;20074;-61
2023/12/30 08:19:03;;;;;;;0.10;0.10;;;;;;;23.34;43.12;98664.28;7401465;19;20010;-61
2023/12/30 08:21:32;;;;;;;0.20;0.17;;;;;;;20.68;45.76;98664.75;7399030;19;20470;-61
2023/12/30 08:24:00;;;;;;;0.10;0.10;;;;;;;21.04;46.21;98653.81;7397781;19;20018;-61
2023/12/30 08:26:27;;;;;;;0.10;0.10;;;;;;;22.72;45.15;98640.16;7398907;19;20070;-61
2023/12/30 08:28:57;;;;;;;0.10;0.10;;;;;;;27.85;36.82;98632.69;7400328;19;20094;-61
2023/12/30 08:31:23;;;;;;;0.10;0.10;;;;;;;30.45;33.35;98621.09;7397376;19;20395;-61
2023/12/30 08:33:50;;;;;;;0.15;0.15;;;;;;;31.70;31.13;98621.19;7397658;19;20006;-61
2023/12/30 08:36:16;;;;;;;0.10;0.10;;;;;;;32.23;30.11;98606.94;7397635;19;20057;-61
2023/12/30 08:38:43;;;;;;;1.40;0.35;;;;;;;32.55;29.70;98608.97;7400980;19;20019;-61
2023/12/30 08:41:14;;;;;;;0.10;0.10;;;;;;;32.54;28.92;98613.28;7398538;19;20015;-61
2023/12/30 08:43:43;;;;;;;0.10;0.10;;;;;;;32.22;29.03;98602.53;7398014;19;20074;-61
2023/12/30 08:46:10;;;;;;;0.50;0.50;;;;;;;32.40;28.80;98609.06;7397936;19;20416;-61
2023/12/30 08:48:37;;;;;;;1.95;0.50;;;;;;;32.29;28.45;98593.50;7400312;19;20010;-61
2023/12/30 08:51:03;;;;;;;0.20;0.20;;;;;;;31.94;28.73;98596.31;7397629;19;20047;-61
2023/12/30 08:53:29;;;;;;;0.13;0.13;;;;;;;31.76;28.75;98598.41;7398046;19;20358;-61
2023/12/30 08:55:56;;;;;;;0.35;0.35;;;;;;;31.85;28.84;98589.47;7398349;19;20033;-61
2023/12/30 08:58:24;;;;;;;12.52;1.00;;;;;;;32.40;28.51;98592.50;7395863;19;20014;-61
2023/12/30 09:00:50;;;;;;;0.20;0.20;;;;;;;32.48;28.66;98586.34;7395211;19;20006;-61
2023/12/30 09:03:16;;;;;;;1.35;0.52;;;;;;;32.47;28.38;98568.31;7396771;19;20014;-61
2023/12/30 09:05:43;;;;;;;4.68;1.65;;;;;;;33.18;27.55;98563.13;7398235;19;20019;-61
2023/12/30 09:08:10;;;;;;;0.17;0.17;;;;;;;33.02;27.78;98556.78;7398536;19;20073;-62
2023/12/30 09:10:37;;;;;;;0.73;0.55;;;;;;;32.94;27.62;98549.94;7397657;19;20025;-61
2023/12/30 09:13:04;;;;;;;0.30;0.30;;;;;;;32.59;28.24;98545.75;7397086;19;20086;-61
2023/12/30 09:15:30;;;;;;;1.08;0.47;;;;;;;32.64;28.03;98532.94;7396890;19;20363;-61
2023/12/30 09:17:58;;;;;;;0.68;0.68;;;;;;;33.16;27.81;98530.59;7394632;19;20014;-62
2023/12/30 09:20:24;;;;;;;0.30;0.30;;;;;;;33.14;27.20;98521.84;7394714;19;20015;-61
2023/12/30 09:22:51;;;;;;;2.28;0.28;;;;;;;33.37;27.26;98522.00;7395069;19;20014;-61
2023/12/30 09:25:18;;;;;;;0.20;0.20;;;;;;;33.40;27.12;98514.88;7396683;19;20017;-61
2023/12/30 09:27:45;;;;;;;17.63;1.00;;;;;;;33.52;26.95;98503.03;7400436;19;20029;-61
2023/12/30 09:30:12;;;;;;;0.52;0.43;;;;;;;33.35;27.44;98518.28;7395918;19;20014;-61
2023/12/30 09:32:38;;;;;;;0.22;0.10;;;;;;;33.32;27.63;98503.03;7396128;19;20074;-61
2023/12/30 09:35:05;;;;;;;0.30;0.30;;;;;;;33.61;26.97;98499.03;7395906;19;20018;-61
2023/12/30 09:37:31;;;;;;;0.40;0.40;;;;;;;33.64;26.86;98480.34;7394382;19;20014;-61
2023/12/30 09:39:58;;;;;;;0.90;0.30;;;;;;;33.63;27.05;98484.66;7395520;19;20037;-61
2023/12/30 09:42:24;;;;;;;2.78;0.95;;;;;;;33.99;26.33;98485.09;7394751;19;20029;-61
2023/12/30 09:44:50;;;;;;;0.45;0.28;;;;;;;33.17;26.83;98480.13;7395898;19;20014;-61
2023/12/30 09:47:17;;;;;;;0.22;0.22;;;;;;;33.03;27.04;98479.63;7396116;19;20036;-61
2023/12/30 09:49:44;;;;;;;0.60;0.60;;;;;;;32.85;27.18;98471.72;7395774;19;20030;-61
2023/12/30 09:52:10;;;;;;;0.52;0.52;;;;;;;33.11;27.57;98468.34;7394536;19;20007;-61
2023/12/30 09:54:38;;;;;;;5.35;1.10;;;;;;;33.31;26.90;98466.19;7395072;19;20043;-61
2023/12/30 09:57:05;;;;;;;2.97;0.43;;;;;;;33.52;27.14;98456.84;7397838;19;20006;-61
2023/12/30 09:59:41;;;;;;;0.68;0.35;;;;;;;33.50;26.76;98442.31;7399798;19;20033;-61
2023/12/30 10:02:09;;;;;;;3.40;0.93;;;;;;;33.70;26.85;98401.84;7394018;19;20015;-61
2023/12/30 10:04:36;;;;;;;0.20;0.20;;;;;;;33.60;26.94;98400.09;7393045;19;20014;-61
2023/12/30 10:07:03;;;;;;;0.47;0.47;;;;;;;33.86;26.42;98403.09;7394905;19;20342;-61
2023/12/30 10:09:29;;;;;;;0.47;0.47;;;;;;;33.92;26.33;98405.41;7399348;19;20074;-61
2023/12/30 10:11:55;;;;;;;0.20;0.10;;;;;;;34.26;26.21;98404.34;7394781;19;20018;-61
2023/12/30 10:14:22;;;;;;;1.75;0.75;;;;;;;34.11;26.63;98416.88;7394947;19;20015;-61
2023/12/30 10:16:48;;;;;;;0.77;0.57;;;;;;;34.12;26.81;98414.75;7392356;19;20074;-61
2023/12/30 10:19:16;;;;;;;5.57;0.93;;;;;;;33.94;27.01;98414.16;7396125;19;20347;-61
2023/12/30 10:21:43;;;;;;;1.95;0.88;;;;;;;33.83;26.85;98421.75;7395197;19;20081;-61
2023/12/30 10:24:09;;;;;;;0.45;0.38;;;;;;;33.82;27.17;98425.31;7394818;19;20015;-61
2023/12/30 10:26:39;;;;;;;2.83;1.98;;;;;;;33.60;27.13;98420.31;7396000;19;20047;-61
2023/12/30 10:29:06;;;;;;;0.32;0.22;;;;;;;33.68;26.92;98422.72;7397880;19;20018;-61
2023/12/30 10:31:33;;;;;;;5.00;0.85;;;;;;;33.61;26.93;98413.09;7394180;19;20479;-61
2023/12/30 10:33:59;;;;;;;0.30;0.10;;;;;;;32.95;27.32;98402.13;7392565;19;20010;-61
2023/12/30 10:36:28;;;;;;;0.30;0.30;;;;;;;32.56;27.50;98396.38;7393455;19;20015;-61
2023/12/30 10:38:55;;;;;;;6.05;2.17;;;;;;;32.84;27.65;98392.38;7396167;19;20027;-61
2023/12/30 10:41:21;;;;;;;1.25;0.90;;;;;;;33.59;27.18;98392.13;7394080;19;20010;-61
2023/12/30 10:43:47;;;;;;;0.32;0.25;;;;;;;33.07;27.66;98387.44;7393619;19;20100;-61
2023/12/30 10:46:16;;;;;;;1.98;1.00;;;;;;;32.96;27.88;98385.56;7392736;19;20018;-61
2023/12/30 10:48:56;;;;;;;6.30;1.85;;;;;;;33.06;27.61;98383.06;7395713;19;20014;-61
2023/12/30 10:51:30;;;;;;;1.02;0.63;;;;;;;32.94;27.82;98376.84;7393376;19;20029;-61
2023/12/30 10:54:03;;;;;;;1.38;1.17;;;;;;;32.58;28.03;98370.50;7393803;19;20473;-61
2023/12/30 10:56:31;;;;;;;3.05;0.68;;;;;;;33.54;27.87;98376.06;7394766;19;20014;-61
2023/12/30 10:59:04;;;;;;;10.93;1.95;;;;;;;33.43;27.80;98365.56;7397247;19;20356;-53
2023/12/30 11:01:33;;;;;;;0.70;0.70;;;;;;;34.10;26.95;98356.88;7394017;19;20007;-61
2023/12/30 11:04:03;;;;;;;3.78;0.57;;;;;;;34.82;27.01;98335.09;7393679;19;20011;-61
2023/12/30 11:06:39;;;;;;;1.70;1.00;;;;;;;34.55;26.93;98338.69;7392372;19;20017;-61
2023/12/30 11:09:09;;;;;;;4.97;0.50;;;;;;;34.63;26.84;98342.53;7390537;19;20128;-52
2023/12/30 11:11:47;;;;;;;1.33;0.82;;;;;;;34.71;26.97;98319.63;7393088;19;20020;-53
2023/12/30 11:14:15;;;;;;;3.80;0.43;;;;;;;35.06;27.02;98324.19;7392945;19;20031;-53
2023/12/30 11:16:41;;;;;;;1.02;0.80;;;;;;;34.82;27.17;98315.59;7392359;19;20030;-53
2023/12/30 11:19:07;;;;;;;5.97;1.55;;;;;;;34.54;27.33;98316.97;7392966;19;20082;-53
2023/12/30 11:21:39;;;;;;;0.10;0.10;;;;;;;34.68;27.10;98309.41;7396975;19;20016;-53
2023/12/30 11:24:10;;;;;;;0.63;0.63;;;;;;;34.98;26.96;98292.09;7392935;19;20014;-53
2023/12/30 11:26:40;;;;;;;7.78;0.93;;;;;;;35.37;26.79;98294.56;7395050;19;20017;-61
2023/12/30 11:29:20;;;;;;;1.27;0.50;;;;;;;35.51;26.92;98291.28;7392581;19;20017;-61
2023/12/30 11:31:48;;;;;;;2.30;1.33;;;;;;;36.65;26.09;98278.50;7399049;19;20069;-61
2023/12/30 11:34:17;;;;;;;1.00;0.43;;;;;;;35.92;26.67;98264.69;7399079;19;20010;-53